createdAt,value
2022-08-11T00:00:00.306Z,1.0
2022-08-11T00:05:00.284Z,0.4
2022-08-11T00:10:00.324Z,1.3
2022-08-11T00:15:00.342Z,0.8
2022-08-11T00:20:11.229Z,0.8
2022-08-11T00:25:02.998Z,1.2
2022-08-11T00:30:00.308Z,1.3
2022-08-11T00:35:50.248Z,1.2
2022-08-11T00:40:00.519Z,0.4
2022-08-11T00:45:00.311Z,0.2
2022-08-11T00:50:00.281Z,1.3
2022-08-11T00:55:00.254Z,2.7
2022-08-11T01:00:03.963Z,2.0
2022-08-11T01:05:00.234Z,1.8
2022-08-11T01:10:07.262Z,1.6
2022-08-11T01:15:00.265Z,2.3
2022-08-11T01:20:04.244Z,2.3
2022-08-11T01:25:00.246Z,3.1
2022-08-11T01:30:00.362Z,2.7
2022-08-11T01:35:00.251Z,2.0
2022-08-11T01:40:00.276Z,2.4
2022-08-11T01:45:00.284Z,2.4
2022-08-11T01:50:10.606Z,1.7
2022-08-11T01:55:00.248Z,1.7
2022-08-11T02:00:00.298Z,1.2
2022-08-11T02:05:00.232Z,0.8
2022-08-11T02:10:01.856Z,0.0
2022-08-11T02:15:05.777Z,1.0
2022-08-11T02:20:00.285Z,1.6
2022-08-11T02:25:00.324Z,1.9
2022-08-11T02:30:00.292Z,0.9
2022-08-11T02:35:00.864Z,0.4
2022-08-11T02:40:00.274Z,1.2
2022-08-11T02:45:00.295Z,1.4
2022-08-11T02:50:07.989Z,0.5
2022-08-11T02:55:00.237Z,0.2
2022-08-11T03:00:00.353Z,1.1
2022-08-11T03:05:00.289Z,2.4
2022-08-11T03:10:00.288Z,1.6
2022-08-11T03:15:00.262Z,1.7
2022-08-11T03:20:00.357Z,2.0
2022-08-11T03:25:00.254Z,2.6
2022-08-11T03:30:00.282Z,1.9
2022-08-11T03:35:00.256Z,1.9
2022-08-11T03:40:00.443Z,2.4
2022-08-11T03:45:00.435Z,2.3
2022-08-11T03:50:00.239Z,1.7
2022-08-11T03:55:00.245Z,1.8
2022-08-11T04:00:00.280Z,2.6
2022-08-11T04:05:00.305Z,2.0
2022-08-11T04:10:00.281Z,2.0
2022-08-11T04:15:00.252Z,1.5
2022-08-11T04:20:00.277Z,0.8
2022-08-11T04:25:00.241Z,0.9
2022-08-11T04:30:05.801Z,1.8
2022-08-11T04:35:00.283Z,0.9
2022-08-11T04:40:00.270Z,1.0
2022-08-11T04:45:00.261Z,1.5
2022-08-11T04:50:00.290Z,0.5
2022-08-11T04:55:00.302Z,0.9
2022-08-11T05:00:00.354Z,1.0
2022-08-11T05:05:00.262Z,1.7
2022-08-11T05:10:00.324Z,3.1
2022-08-11T05:15:00.263Z,3.1
2022-08-11T05:20:00.440Z,1.6
2022-08-11T05:25:01.378Z,2.9
2022-08-11T05:30:00.408Z,2.9
2022-08-11T05:35:00.248Z,2.4
2022-08-11T05:40:00.460Z,2.4
2022-08-11T05:45:00.871Z,3.8
2022-08-11T05:50:01.050Z,3.6
2022-08-11T05:55:07.138Z,4.1
2022-08-11T06:00:00.299Z,4.0
2022-08-11T06:05:00.275Z,3.2
2022-08-11T06:10:00.257Z,3.9
2022-08-11T06:15:00.240Z,3.5
2022-08-11T06:20:07.793Z,1.9
2022-08-11T06:25:00.359Z,0.9
2022-08-11T06:30:00.389Z,3.1
2022-08-11T06:35:00.309Z,3.6
2022-08-11T06:40:00.524Z,2.2
2022-08-11T06:45:00.268Z,1.4
2022-08-11T06:50:00.317Z,1.1
2022-08-11T06:55:00.266Z,2.0
2022-08-11T07:00:00.797Z,0.8
2022-08-11T07:05:00.268Z,1.2
2022-08-11T07:10:00.325Z,1.8
2022-08-11T07:15:01.143Z,2.6
2022-08-11T07:20:00.318Z,0.9
2022-08-11T07:25:03.625Z,0.7
2022-08-11T07:30:00.420Z,2.1
2022-08-11T07:35:00.249Z,1.2
2022-08-11T07:40:00.557Z,3.8
2022-08-11T07:45:00.301Z,1.7
2022-08-11T07:50:01.020Z,0.8
2022-08-11T07:55:00.652Z,4.6
2022-08-11T08:00:05.270Z,0.3
2022-08-11T08:05:00.283Z,1.6
2022-08-11T08:10:00.362Z,5.4
2022-08-11T08:15:00.967Z,2.1
2022-08-11T08:20:00.358Z,1.0
2022-08-11T08:25:00.263Z,1.6
2022-08-11T08:30:00.301Z,3.0
2022-08-11T08:35:00.275Z,1.0
2022-08-11T08:40:00.273Z,2.9
2022-08-11T08:45:00.281Z,3.4
2022-08-11T08:50:00.522Z,0.6
2022-08-11T08:55:00.251Z,1.4
2022-08-11T09:00:00.334Z,3.7
2022-08-11T09:05:00.339Z,1.1
2022-08-11T09:10:00.749Z,3.5
2022-08-11T09:15:00.316Z,3.1
2022-08-11T09:20:01.780Z,4.2
2022-08-11T09:25:00.288Z,1.7
2022-08-11T09:30:00.343Z,1.0
2022-08-11T09:35:00.255Z,4.3
2022-08-11T09:40:00.296Z,5.4
2022-08-11T09:45:02.128Z,3.3
2022-08-11T09:50:01.549Z,6.4
2022-08-11T09:55:00.249Z,2.8
2022-08-11T10:00:13.035Z,8.4
2022-08-11T10:05:00.277Z,5.5
2022-08-11T10:10:00.292Z,5.6
2022-08-11T10:15:00.257Z,2.3
2022-08-11T10:20:06.153Z,1.6
2022-08-11T10:25:00.286Z,1.4
2022-08-11T10:30:00.376Z,2.9
2022-08-11T10:35:00.317Z,2.2
2022-08-11T10:40:00.303Z,2.4
2022-08-11T10:45:00.309Z,6.7
2022-08-11T10:50:05.538Z,5.1
2022-08-11T10:55:00.262Z,4.9
2022-08-11T11:00:00.320Z,3.6
2022-08-11T11:05:00.283Z,3.2
2022-08-11T11:10:00.982Z,2.6
2022-08-11T11:15:00.446Z,1.8
2022-08-11T11:20:00.308Z,5.2
2022-08-11T11:25:00.333Z,6.2
2022-08-11T11:30:00.375Z,5.6
2022-08-11T11:35:00.235Z,2.3
2022-08-11T11:40:00.350Z,4.5
2022-08-11T11:45:01.752Z,1.4
2022-08-11T11:50:00.370Z,4.9
2022-08-11T11:55:00.334Z,6.8
2022-08-11T12:00:00.294Z,9.6
2022-08-11T12:05:00.255Z,7.0
2022-08-11T12:10:00.443Z,4.0
2022-08-11T12:15:00.260Z,7.8
2022-08-11T12:20:01.851Z,4.0
2022-08-11T12:25:00.232Z,6.0
2022-08-11T12:30:00.368Z,5.4
2022-08-11T12:35:00.313Z,5.1
2022-08-11T12:40:13.207Z,1.4
2022-08-11T12:45:00.276Z,0.4
2022-08-11T12:50:00.285Z,3.6
2022-08-11T12:55:00.354Z,3.0
2022-08-11T13:00:01.148Z,5.5
2022-08-11T13:05:00.247Z,5.9
2022-08-11T13:10:00.289Z,4.6
2022-08-11T13:15:01.141Z,1.6
2022-08-11T13:20:00.283Z,4.5
2022-08-11T13:25:00.283Z,4.4
2022-08-11T13:30:00.637Z,1.8
2022-08-11T13:35:00.271Z,3.5
2022-08-11T13:40:00.563Z,0.2
2022-08-11T13:45:00.255Z,3.8
2022-08-11T13:50:00.285Z,2.0
2022-08-11T13:55:00.257Z,3.7
2022-08-11T14:00:00.943Z,6.1
2022-08-11T14:05:00.248Z,4.3
2022-08-11T14:10:00.371Z,2.0
2022-08-11T14:15:08.051Z,9.4
2022-08-11T14:20:00.352Z,4.5
2022-08-11T14:25:00.308Z,5.5
2022-08-11T14:30:00.434Z,7.1
2022-08-11T14:35:00.261Z,5.5
2022-08-11T14:40:04.441Z,8.3
2022-08-11T14:45:00.309Z,7.2
2022-08-11T14:50:12.454Z,7.0
2022-08-11T14:55:00.266Z,8.8
2022-08-11T15:00:00.317Z,6.1
2022-08-11T15:05:00.258Z,5.1
2022-08-11T15:10:12.946Z,2.2
2022-08-11T15:15:00.427Z,4.8
2022-08-11T15:20:00.665Z,6.6
2022-08-11T15:25:00.339Z,6.7
2022-08-11T15:30:00.486Z,6.9
2022-08-11T15:35:04.109Z,3.7
2022-08-11T15:40:00.560Z,5.4
2022-08-11T15:45:04.208Z,7.5
2022-08-11T15:50:13.537Z,6.2
2022-08-11T15:55:00.329Z,8.3
2022-08-11T16:00:00.306Z,8.3
2022-08-11T16:05:00.294Z,5.3
2022-08-11T16:10:00.885Z,5.0
2022-08-11T16:15:00.268Z,4.7
2022-08-11T16:20:00.394Z,5.6
2022-08-11T16:25:58.381Z,4.6
2022-08-11T16:30:00.298Z,8.0
2022-08-11T16:35:00.294Z,6.4
2022-08-11T16:40:00.425Z,6.2
2022-08-11T16:45:00.287Z,6.3
2022-08-11T16:50:00.296Z,5.1
2022-08-11T16:55:00.301Z,7.1
2022-08-11T17:00:00.264Z,5.5
2022-08-11T17:05:00.266Z,8.6
2022-08-11T17:10:00.308Z,6.4
2022-08-11T17:15:00.293Z,4.3
2022-08-11T17:20:39.151Z,5.9
2022-08-11T17:25:00.279Z,4.8
2022-08-11T17:30:00.294Z,4.6
2022-08-11T17:35:00.268Z,3.9
2022-08-11T17:40:01.202Z,4.5
2022-08-11T17:45:00.290Z,4.4
2022-08-11T17:50:16.807Z,4.9
2022-08-11T17:55:00.979Z,6.6
2022-08-11T18:00:00.371Z,6.1
2022-08-11T18:05:00.292Z,5.3
2022-08-11T18:10:00.270Z,4.3
2022-08-11T18:15:00.258Z,2.2
2022-08-11T18:20:00.357Z,5.6
2022-08-11T18:25:00.246Z,4.5
2022-08-11T18:30:02.274Z,3.7
2022-08-11T18:35:00.241Z,4.1
2022-08-11T18:40:00.476Z,3.9
2022-08-11T18:45:00.369Z,2.8
2022-08-11T18:50:05.320Z,2.0
2022-08-11T18:55:00.251Z,1.1
2022-08-11T19:00:00.454Z,0.6
2022-08-11T19:05:00.252Z,0.7
2022-08-11T19:10:00.285Z,1.4
2022-08-11T19:15:00.252Z,0.5
2022-08-11T19:20:00.304Z,1.0
2022-08-11T19:25:02.925Z,0.9
2022-08-11T19:30:12.848Z,0.7
2022-08-11T19:35:00.320Z,0.4
2022-08-11T19:40:00.532Z,0.1
2022-08-11T19:45:00.257Z,0.2
2022-08-11T19:50:00.389Z,0.0
2022-08-11T19:55:00.235Z,0.7
2022-08-11T20:00:00.297Z,0.9
2022-08-11T20:05:00.253Z,0.5
2022-08-11T20:10:06.606Z,0.0
2022-08-11T20:15:00.287Z,0.0
2022-08-11T20:25:00.221Z,2.9
2022-08-11T20:30:00.378Z,2.3
2022-08-11T20:35:00.244Z,3.3
2022-08-11T20:40:00.335Z,4.5
2022-08-11T20:45:00.265Z,4.0
2022-08-11T20:50:03.308Z,3.1
2022-08-11T20:55:00.894Z,2.8
2022-08-11T21:00:00.334Z,2.5
2022-08-11T21:05:00.801Z,2.9
2022-08-11T21:10:11.424Z,2.6
2022-08-11T21:15:05.871Z,2.8
2022-08-11T21:20:10.770Z,3.7
2022-08-11T21:25:00.353Z,1.9
2022-08-11T21:30:00.281Z,1.6
2022-08-11T21:35:00.287Z,1.9
2022-08-11T21:40:00.542Z,2.3
2022-08-11T21:45:00.269Z,2.4
2022-08-11T21:50:00.334Z,2.0
2022-08-11T21:55:00.254Z,2.1
2022-08-11T22:00:00.456Z,1.4
2022-08-11T22:05:00.253Z,0.3
2022-08-11T22:10:27.500Z,0.6
2022-08-11T22:15:00.264Z,0.6
2022-08-11T22:20:01.275Z,1.0
2022-08-11T22:25:00.294Z,0.2
2022-08-11T22:30:00.376Z,0.0
2022-08-11T22:35:00.265Z,0.0
2022-08-11T22:40:03.382Z,0.5
2022-08-11T22:45:00.312Z,0.3
2022-08-11T22:50:00.307Z,0.1
2022-08-11T22:55:00.312Z,0.0
2022-08-11T23:00:00.305Z,0.0
2022-08-11T23:05:00.292Z,0.0
2022-08-11T23:10:00.280Z,0.0
2022-08-11T23:15:00.360Z,0.0
2022-08-11T23:20:21.303Z,0.0
2022-08-11T23:25:00.294Z,0.0
2022-08-11T23:30:00.373Z,0.3
2022-08-11T23:35:37.717Z,0.4
2022-08-11T23:40:00.274Z,0.8
2022-08-11T23:45:00.297Z,0.4
2022-08-11T23:50:00.308Z,0.7
2022-08-11T23:55:00.363Z,0.4
